Time;durP1;ratioP1;P1;durP2;ratioP2;P2;SDS_P1;SDS_P2;PMS_P1;PMS_P2;Temp;Humidity;BMP_temperature;BMP_pressure;BME280_temperature;BME280_humidity;BME280_pressure;Samples;Min_cycle;Max_cycle;Signal;HPM_P1;HPM_P2
2022/11/25 00:02:09;;;;;;;18.05;9.27;;;;;;;;;;6091352;23;20113;-84
2022/11/25 00:04:38;;;;;;;15.82;8.70;;;;;;;;;;6090742;23;20069;-84
2022/11/25 00:07:11;;;;;;;16.17;8.82;;;;;;;;;;6090160;23;20027;-83
2022/11/25 00:09:38;;;;;;;14.77;8.70;;;;;;;;;;6089818;23;20487;-83
2022/11/25 00:12:06;;;;;;;14.80;8.25;;;;;;;;;;6091097;23;20069;-84
2022/11/25 00:14:46;;;;;;;16.08;8.13;;;;;;;;;;6089669;23;20022;-83
2022/11/25 00:17:13;;;;;;;16.98;8.13;;;;;;;;;;6089266;23;20026;-84
2022/11/25 00:19:47;;;;;;;14.07;8.00;;;;;;;;;;6066925;23;20531;-83
2022/11/25 00:22:14;;;;;;;;;;;;;;;;;;6091233;23;20105;-83
2022/11/25 00:24:42;;;;;;;14.10;7.70;;;;;;;;;;6090352;23;20000;-83
2022/11/25 00:27:15;;;;;;;14.68;7.82;;;;;;;;;;6090786;23;20061;-83
2022/11/25 00:29:42;;;;;;;15.80;8.10;;;;;;;;;;6090018;23;20029;-83
2022/11/25 00:32:16;;;;;;;15.40;8.45;;;;;;;;;;6092084;23;20466;-84
2022/11/25 00:34:43;;;;;;;13.13;7.07;;;;;;;;;;6091707;23;20140;-82
2022/11/25 00:37:10;;;;;;;14.82;7.18;;;;;;;;;;6091245;23;20033;-82
2022/11/25 00:39:44;;;;;;;13.82;8.55;;;;;;;;;;6091243;23;20482;-82
2022/11/25 00:45:04;;;;;;;13.35;7.43;;;;;;;;;;6089339;23;20032;-83
2022/11/25 00:47:31;;;;;;;13.27;7.32;;;;;;;;;;6089751;23;20030;-83
2022/11/25 00:50:05;;;;;;;15.07;7.90;;;;;;;;;;6091097;23;20025;-83
2022/11/25 00:52:35;;;;;;;16.50;8.43;;;;;;;;;;6091620;23;20344;-83
2022/11/25 00:55:09;;;;;;;15.77;8.70;;;;;;;;;;6090293;23;20018;-83
2022/11/25 00:57:36;;;;;;;14.90;8.40;;;;;;;;;;6090309;23;20113;-83
2022/11/25 01:00:04;;;;;;;14.27;8.18;;;;;;;;;;6089970;23;20105;-83
2022/11/25 01:02:38;;;;;;;13.55;7.93;;;;;;;;;;6090589;23;20065;-83
2022/11/25 01:05:06;;;;;;;14.32;7.75;;;;;;;;;;6090691;23;20027;-83
2022/11/25 01:07:39;;;;;;;14.68;7.25;;;;;;;;;;6091239;23;20064;-84
2022/11/25 01:10:07;;;;;;;14.30;8.15;;;;;;;;;;6090259;23;20030;-83
2022/11/25 01:12:34;;;;;;;15.07;7.05;;;;;;;;;;6090402;23;20475;-82
2022/11/25 01:15:15;;;;;;;11.88;7.45;;;;;;;;;;6088575;23;20468;-84
2022/11/25 01:17:42;;;;;;;15.00;7.60;;;;;;;;;;6089690;23;20023;-84
2022/11/25 01:20:17;;;;;;;14.80;7.15;;;;;;;;;;6089596;23;20026;-84
2022/11/25 01:22:44;;;;;;;15.05;7.65;;;;;;;;;;6091437;23;20073;-83
2022/11/25 01:25:11;;;;;;;15.57;7.10;;;;;;;;;;6091043;23;20018;-83
2022/11/25 01:27:45;;;;;;;10.65;6.22;;;;;;;;;;6089929;23;20102;-82
2022/11/25 01:30:13;;;;;;;12.70;6.82;;;;;;;;;;6091124;23;20097;-82
2022/11/25 01:32:40;;;;;;;15.05;8.00;;;;;;;;;;6090523;23;20030;-82
2022/11/25 01:35:14;;;;;;;14.00;7.80;;;;;;;;;;6090038;23;20110;-83
2022/11/25 01:37:49;;;;;;;16.17;7.57;;;;;;;;;;6090029;23;20030;-84
2022/11/25 01:40:16;;;;;;;13.20;7.10;;;;;;;;;;6090803;23;20097;-83
2022/11/25 01:42:50;;;;;;;11.82;7.22;;;;;;;;;;6090025;23;20105;-83
2022/11/25 01:45:25;;;;;;;15.68;7.10;;;;;;;;;;6089980;23;20029;-83
2022/11/25 01:48:02;;;;;;;14.18;7.93;;;;;;;;;;6090667;23;20746;-83
2022/11/25 01:50:31;;;;;;;13.50;7.68;;;;;;;;;;6091164;23;20105;-83
2022/11/25 01:52:59;;;;;;;12.93;7.93;;;;;;;;;;6090769;23;20029;-83
2022/11/25 01:55:34;;;;;;;11.63;7.00;;;;;;;;;;6090544;23;20033;-84
2022/11/25 01:58:06;;;;;;;12.85;7.32;;;;;;;;;;6089947;23;20058;-83
2022/11/25 02:00:40;;;;;;;15.75;6.93;;;;;;;;;;6090191;23;20105;-83
2022/11/25 02:03:08;;;;;;;14.20;7.63;;;;;;;;;;6091011;23;20036;-83
2022/11/25 02:05:48;;;;;;;13.13;7.15;;;;;;;;;;6090677;23;20073;-83
2022/11/25 02:08:16;;;;;;;10.75;6.05;;;;;;;;;;6090944;23;20467;-83
2022/11/25 02:10:51;;;;;;;12.60;7.85;;;;;;;;;;6091221;23;20050;-83
2022/11/25 02:13:32;;;;;;;12.98;7.32;;;;;;;;;;6091849;23;20101;-84
2022/11/25 02:16:06;;;;;;;12.52;7.07;;;;;;;;;;6091776;23;20106;-83
2022/11/25 02:18:46;;;;;;;16.00;7.60;;;;;;;;;;6090962;23;20033;-83
2022/11/25 02:21:15;;;;;;;10.73;6.85;;;;;;;;;;6092131;23;20491;-83
2022/11/25 02:23:52;;;;;;;12.13;6.90;;;;;;;;;;6092428;23;20585;-83
2022/11/25 02:26:20;;;;;;;14.43;7.93;;;;;;;;;;6092211;23;20109;-83
2022/11/25 02:28:47;;;;;;;;;;;;;;;;;;6091120;23;20034;-83
2022/11/25 02:31:22;;;;;;;13.70;7.53;;;;;;;;;;6092470;23;19960;-83
2022/11/25 02:33:49;;;;;;;15.20;8.18;;;;;;;;;;6092630;23;20376;-83
2022/11/25 02:36:23;;;;;;;15.32;8.40;;;;;;;;;;6090946;23;20032;-83
2022/11/25 02:38:52;;;;;;;15.65;8.85;;;;;;;;;;6091811;23;20033;-83
2022/11/25 02:41:22;;;;;;;17.23;9.20;;;;;;;;;;6091666;23;20030;-83
2022/11/25 02:43:56;;;;;;;12.73;7.63;;;;;;;;;;6093343;23;20125;-84
2022/11/25 02:46:24;;;;;;;12.98;7.63;;;;;;;;;;6091398;23;20026;-83
2022/11/25 02:48:59;;;;;;;16.67;7.47;;;;;;;;;;6092073;23;20105;-83
2022/11/25 02:51:35;;;;;;;14.63;8.02;;;;;;;;;;6092299;23;20129;-83
2022/11/25 02:54:09;;;;;;;18.33;9.00;;;;;;;;;;6091268;23;20457;-83
2022/11/25 02:56:37;;;;;;;14.45;7.88;;;;;;;;;;6090680;23;20026;-83
2022/11/25 02:59:11;;;;;;;16.88;7.10;;;;;;;;;;6092170;23;20023;-83
2022/11/25 03:01:38;;;;;;;15.18;7.68;;;;;;;;;;6091294;23;20407;-83
2022/11/25 03:04:06;;;;;;;14.95;7.90;;;;;;;;;;6092102;23;20034;-84
2022/11/25 03:06:40;;;;;;;17.55;9.02;;;;;;;;;;6067192;23;20097;-83
2022/11/25 03:09:07;;;;;;;15.90;8.90;;;;;;;;;;6091385;23;20113;-83
2022/11/25 03:14:34;;;;;;;15.27;9.13;;;;;;;;;;6090766;23;20044;-83
2022/11/25 03:17:07;;;;;;;15.75;9.35;;;;;;;;;;6092281;23;20101;-83
2022/11/25 03:19:34;;;;;;;17.55;9.00;;;;;;;;;;6089567;23;20023;-84
2022/11/25 03:22:02;;;;;;;14.63;8.65;;;;;;;;;;6091116;23;20525;-83
2022/11/25 03:24:35;;;;;;;17.67;9.73;;;;;;;;;;6092172;23;20061;-83
2022/11/25 03:27:02;;;;;;;;;;;;;;;;;;6091929;23;20030;-83
2022/11/25 03:29:36;;;;;;;17.13;8.77;;;;;;;;;;6091878;23;19924;-83
2022/11/25 03:32:03;;;;;;;19.08;9.98;;;;;;;;;;6091678;23;20105;-82
2022/11/25 03:34:35;;;;;;;18.05;9.50;;;;;;;;;;6091624;23;20019;-83
2022/11/25 03:37:09;;;;;;;19.10;9.65;;;;;;;;;;6092338;23;20033;-83
2022/11/25 03:39:36;;;;;;;16.05;8.77;;;;;;;;;;6092929;23;20022;-82
2022/11/25 03:42:10;;;;;;;19.42;9.20;;;;;;;;;;6067706;23;20030;-83
2022/11/25 03:44:38;;;;;;;18.85;9.93;;;;;;;;;;6092001;23;20101;-83
2022/11/25 03:47:05;;;;;;;16.90;9.82;;;;;;;;;;6092604;23;20022;-84
2022/11/25 03:49:38;;;;;;;17.63;9.15;;;;;;;;;;6091495;23;20033;-82
2022/11/25 03:52:05;;;;;;;17.40;8.57;;;;;;;;;;6091004;23;20093;-82
2022/11/25 03:54:39;;;;;;;14.98;7.72;;;;;;;;;;6091918;23;20029;-83
2022/11/25 03:57:06;;;;;;;13.45;8.27;;;;;;;;;;6092310;23;20028;-83
2022/11/25 03:59:33;;;;;;;17.65;9.25;;;;;;;;;;6091982;23;20023;-83
2022/11/25 04:02:07;;;;;;;14.02;8.85;;;;;;;;;;6090438;23;20061;-83
2022/11/25 04:04:34;;;;;;;13.68;7.90;;;;;;;;;;6091993;23;20027;-83
2022/11/25 04:07:08;;;;;;;14.27;8.68;;;;;;;;;;6091829;23;20036;-83
2022/11/25 04:09:35;;;;;;;17.52;8.75;;;;;;;;;;6091710;23;20022;-83
2022/11/25 04:15:02;;;;;;;13.60;7.57;;;;;;;;;;6090678;23;20023;-83
2022/11/25 04:17:43;;;;;;;15.55;8.95;;;;;;;;;;6090697;23;20026;-84
2022/11/25 04:20:11;;;;;;;14.20;8.52;;;;;;;;;;6091571;23;20045;-83
2022/11/25 04:22:44;;;;;;;12.75;8.05;;;;;;;;;;6091205;23;20069;-84
2022/11/25 04:25:11;;;;;;;;;;;;;;;;;;6091994;23;20068;-84
2022/11/25 04:27:45;;;;;;;13.60;8.70;;;;;;;;;;6090896;23;20657;-83
2022/11/25 04:30:13;;;;;;;14.95;8.27;;;;;;;;;;6091266;23;20027;-84
2022/11/25 04:32:40;;;;;;;12.65;7.93;;;;;;;;;;6090959;23;20093;-83
2022/11/25 04:35:14;;;;;;;12.93;7.35;;;;;;;;;;6090959;23;20069;-83
2022/11/25 04:37:41;;;;;;;;;;;;;;;;;;6092475;23;20089;-83
2022/11/25 04:40:14;;;;;;;11.55;7.93;;;;;;;;;;6090489;23;19921;-84
2022/11/25 04:42:42;;;;;;;12.82;8.20;;;;;;;;;;6091135;23;20019;-83
2022/11/25 04:45:14;;;;;;;11.80;7.82;;;;;;;;;;6065774;23;20097;-83
2022/11/25 04:47:50;;;;;;;12.82;7.22;;;;;;;;;;6092219;23;20392;-83
2022/11/25 04:50:18;;;;;;;13.38;7.55;;;;;;;;;;6091411;23;20084;-83
2022/11/25 04:52:52;;;;;;;11.95;7.65;;;;;;;;;;6093462;23;20024;-84
2022/11/25 04:55:19;;;;;;;11.35;7.03;;;;;;;;;;6092656;23;20072;-83
2022/11/25 04:57:53;;;;;;;10.88;6.85;;;;;;;;;;6091311;23;20037;-82
2022/11/25 05:00:21;;;;;;;11.52;6.95;;;;;;;;;;6091831;23;20105;-83
2022/11/25 05:02:48;;;;;;;11.20;7.60;;;;;;;;;;6090188;23;20494;-83
2022/11/25 05:05:22;;;;;;;10.90;7.07;;;;;;;;;;6091180;23;20058;-83
2022/11/25 05:07:50;;;;;;;;;;;;;;;;;;6067436;23;20033;-83
2022/11/25 05:10:23;;;;;;;11.52;7.28;;;;;;;;;;6091817;23;19947;-83
2022/11/25 05:12:50;;;;;;;12.13;6.57;;;;;;;;;;6091404;23;20411;-82
2022/11/25 05:15:18;;;;;;;11.57;7.63;;;;;;;;;;6090932;23;20139;-83
2022/11/25 05:17:51;;;;;;;12.05;7.47;;;;;;;;;;6091059;23;20029;-83
2022/11/25 05:20:19;;;;;;;11.80;7.00;;;;;;;;;;6091451;23;20057;-83
2022/11/25 05:22:52;;;;;;;9.90;6.60;;;;;;;;;;6091196;23;20097;-83
2022/11/25 05:25:19;;;;;;;11.55;7.15;;;;;;;;;;6088717;23;20058;-83
2022/11/25 05:27:46;;;;;;;11.02;6.88;;;;;;;;;;6090375;23;20022;-83
2022/11/25 05:30:20;;;;;;;10.60;7.05;;;;;;;;;;6090048;23;20097;-84
2022/11/25 05:32:47;;;;;;;11.52;7.07;;;;;;;;;;6090080;23;20133;-83
2022/11/25 05:35:21;;;;;;;11.05;6.78;;;;;;;;;;6089111;23;20022;-83
2022/11/25 05:37:48;;;;;;;12.25;7.82;;;;;;;;;;6091037;23;20741;-84
2022/11/25 05:40:22;;;;;;;10.10;6.78;;;;;;;;;;6088640;23;20069;-84
2022/11/25 05:42:49;;;;;;;11.50;6.80;;;;;;;;;;6090483;23;20030;-85
2022/11/25 05:45:17;;;;;;;9.52;6.38;;;;;;;;;;6091737;23;20022;-83
2022/11/25 05:47:50;;;;;;;10.43;6.55;;;;;;;;;;6093066;23;20097;-83
2022/11/25 05:50:17;;;;;;;9.88;6.72;;;;;;;;;;6092544;23;20642;-83
2022/11/25 05:52:44;;;;;;;13.40;6.82;;;;;;;;;;6090824;23;20098;-84
2022/11/25 05:55:18;;;;;;;10.27;6.15;;;;;;;;;;6087001;23;20488;-84
2022/11/25 05:57:46;;;;;;;11.30;6.28;;;;;;;;;;6090871;23;20028;-84
2022/11/25 06:00:19;;;;;;;9.80;6.68;;;;;;;;;;6090229;23;20105;-84
2022/11/25 06:02:52;;;;;;;10.93;6.07;;;;;;;;;;6090051;23;20315;-84
2022/11/25 06:05:26;;;;;;;11.73;6.57;;;;;;;;;;6089736;23;20460;-84
2022/11/25 06:07:54;;;;;;;9.65;5.97;;;;;;;;;;6092323;23;20022;-84
2022/11/25 06:10:21;;;;;;;8.82;6.07;;;;;;;;;;6092856;23;20022;-85
2022/11/25 06:12:55;;;;;;;10.40;6.63;;;;;;;;;;6092900;23;20018;-83
2022/11/25 06:15:29;;;;;;;12.27;6.03;;;;;;;;;;6092230;23;20026;-83
2022/11/25 06:18:03;;;;;;;8.73;5.85;;;;;;;;;;6093083;23;20018;-84
2022/11/25 06:20:31;;;;;;;8.35;5.55;;;;;;;;;;6092002;23;20405;-83
2022/11/25 06:22:58;;;;;;;8.88;5.90;;;;;;;;;;6067984;23;20042;-83
2022/11/25 06:25:31;;;;;;;10.40;6.20;;;;;;;;;;6091500;23;20101;-83
2022/11/25 06:27:58;;;;;;;9.85;6.43;;;;;;;;;;6092870;23;20026;-84
2022/11/25 06:30:40;;;;;;;9.52;6.88;;;;;;;;;;6093259;23;20025;-83
2022/11/25 06:33:07;;;;;;;9.63;6.47;;;;;;;;;;6093227;23;20028;-84
2022/11/25 06:35:41;;;;;;;10.93;6.35;;;;;;;;;;6092633;23;20101;-84
2022/11/25 06:38:08;;;;;;;8.48;6.22;;;;;;;;;;6094106;23;20027;-84
2022/11/25 06:40:36;;;;;;;10.80;6.63;;;;;;;;;;6067853;23;20084;-84
2022/11/25 06:43:09;;;;;;;10.60;7.05;;;;;;;;;;6093343;23;20036;-83
2022/11/25 06:45:36;;;;;;;10.63;6.93;;;;;;;;;;6093222;23;20022;-84
2022/11/25 06:48:10;;;;;;;10.10;5.45;;;;;;;;;;6092762;23;20068;-83
2022/11/25 06:50:38;;;;;;;10.57;5.95;;;;;;;;;;6092043;23;20468;-84
2022/11/25 06:53:05;;;;;;;7.72;4.28;;;;;;;;;;6092135;23;20030;-84
2022/11/25 06:55:38;;;;;;;9.73;5.57;;;;;;;;;;6093794;23;20460;-83
2022/11/25 06:58:06;;;;;;;10.90;6.40;;;;;;;;;;6092495;23;20105;-84
2022/11/25 07:00:53;;;;;;;10.25;6.38;;;;;;;;;;6093304;23;20018;-84
2022/11/25 07:03:28;;;;;;;10.77;5.82;;;;;;;;;;6070350;23;20417;-82
2022/11/25 07:05:57;;;;;;;8.38;5.68;;;;;;;;;;6093685;23;20126;-84
2022/11/25 07:08:25;;;;;;;9.00;6.03;;;;;;;;;;6094131;23;20022;-83
2022/11/25 07:11:08;;;;;;;9.48;5.93;;;;;;;;;;6067915;23;20026;-84
2022/11/25 07:13:57;;;;;;;10.50;6.07;;;;;;;;;;6092383;23;20428;-83
2022/11/25 07:16:31;;;;;;;10.43;5.05;;;;;;;;;;6093066;23;20105;-83
2022/11/25 07:19:05;;;;;;;9.68;5.88;;;;;;;;;;6092249;23;20029;-83
2022/11/25 07:21:33;;;;;;;10.52;6.45;;;;;;;;;;6092906;23;20129;-83
2022/11/25 07:24:07;;;;;;;9.48;5.57;;;;;;;;;;6092278;23;20030;-84
2022/11/25 07:26:37;;;;;;;9.43;6.13;;;;;;;;;;6092337;23;20357;-84
2022/11/25 07:29:05;;;;;;;10.43;6.57;;;;;;;;;;6093282;23;20050;-84
2022/11/25 07:31:59;;;;;;;12.35;6.65;;;;;;;;;;6091324;23;20037;-84
2022/11/25 07:34:33;;;;;;;10.23;6.50;;;;;;;;;;6092841;23;20085;-84
2022/11/25 07:37:07;;;;;;;10.50;6.80;;;;;;;;;;6093011;23;20101;-84
2022/11/25 07:39:34;;;;;;;12.18;7.18;;;;;;;;;;6092198;23;20705;-83
2022/11/25 07:42:08;;;;;;;10.63;6.68;;;;;;;;;;6092811;23;20029;-84
2022/11/25 07:44:35;;;;;;;9.82;6.55;;;;;;;;;;6093059;23;20874;-84
2022/11/25 07:47:09;;;;;;;10.60;5.78;;;;;;;;;;6092501;23;20030;-84
2022/11/25 07:49:37;;;;;;;10.52;6.32;;;;;;;;;;6092163;23;20113;-84
2022/11/25 07:52:05;;;;;;;9.98;6.30;;;;;;;;;;6092700;23;20358;-83
2022/11/25 07:54:38;;;;;;;8.18;5.72;;;;;;;;;;6093042;23;20401;-84
2022/11/25 07:57:05;;;;;;;9.98;6.18;;;;;;;;;;6092710;23;20105;-84
2022/11/25 07:59:40;;;;;;;10.00;6.40;;;;;;;;;;6091240;23;20040;-83
2022/11/25 08:02:09;;;;;;;10.57;7.05;;;;;;;;;;6091709;23;20085;-84
2022/11/25 08:04:37;;;;;;;10.27;6.05;;;;;;;;;;6092340;23;20032;-83
2022/11/25 08:07:11;;;;;;;9.18;5.72;;;;;;;;;;6090444;23;20101;-83
2022/11/25 08:09:38;;;;;;;;;;;;;;;;;;6091787;23;20028;-83
2022/11/25 08:12:12;;;;;;;8.90;5.60;;;;;;;;;;6091641;23;20488;-83
2022/11/25 08:14:46;;;;;;;9.70;4.95;;;;;;;;;;6090838;23;20033;-84
2022/11/25 08:17:20;;;;;;;6.35;4.10;;;;;;;;;;6091341;23;20097;-84
2022/11/25 08:19:54;;;;;;;8.70;4.93;;;;;;;;;;6092330;23;20065;-83
2022/11/25 08:22:28;;;;;;;7.88;5.15;;;;;;;;;;6091773;23;20030;-83
2022/11/25 08:25:02;;;;;;;8.95;5.82;;;;;;;;;;6068584;23;20053;-84
2022/11/25 08:27:36;;;;;;;8.13;4.80;;;;;;;;;;6091923;23;20363;-83
2022/11/25 08:30:10;;;;;;;9.02;5.75;;;;;;;;;;6092278;23;20161;-83
2022/11/25 08:32:38;;;;;;;7.47;4.80;;;;;;;;;;6091689;23;20101;-83
2022/11/25 08:35:12;;;;;;;10.10;5.88;;;;;;;;;;6091718;23;20078;-83
2022/11/25 08:37:39;;;;;;;7.35;4.45;;;;;;;;;;6092094;23;20026;-83
2022/11/25 08:40:13;;;;;;;7.53;5.40;;;;;;;;;;6092249;23;20026;-84
2022/11/25 08:42:40;;;;;;;8.75;5.53;;;;;;;;;;6091004;23;20023;-83
2022/11/25 08:45:08;;;;;;;6.50;4.05;;;;;;;;;;6091300;23;20541;-83
2022/11/25 08:47:43;;;;;;;8.15;5.25;;;;;;;;;;6092087;23;20026;-83
2022/11/25 08:50:10;;;;;;;;;;;;;;;;;;6092352;23;20033;-83
2022/11/25 08:52:44;;;;;;;9.93;5.43;;;;;;;;;;6090854;23;19960;-83
2022/11/25 08:55:11;;;;;;;7.82;5.15;;;;;;;;;;6091397;23;20109;-83
2022/11/25 08:57:38;;;;;;;9.73;5.45;;;;;;;;;;6092074;23;20113;-83
2022/11/25 09:00:13;;;;;;;7.57;4.85;;;;;;;;;;6091042;23;20026;-83
2022/11/25 09:02:40;;;;;;;6.90;4.57;;;;;;;;;;6091346;23;20022;-83
2022/11/25 09:05:16;;;;;;;7.15;4.38;;;;;;;;;;6092124;23;20022;-83
2022/11/25 09:07:43;;;;;;;7.90;5.40;;;;;;;;;;6092194;23;20034;-83
2022/11/25 09:10:13;;;;;;;9.40;5.00;;;;;;;;;;6091786;23;20022;-84
2022/11/25 09:12:47;;;;;;;11.73;5.27;;;;;;;;;;6092654;23;20053;-83
2022/11/25 09:15:21;;;;;;;8.73;5.65;;;;;;;;;;6091774;23;20109;-83
2022/11/25 09:17:59;;;;;;;7.47;4.85;;;;;;;;;;6091866;23;20018;-83
2022/11/25 09:20:27;;;;;;;9.68;5.47;;;;;;;;;;6093774;23;20303;-83
2022/11/25 09:22:54;;;;;;;;;;;;;;;;;;6094530;23;20022;-84
2022/11/25 09:25:27;;;;;;;10.27;6.00;;;;;;;;;;6093325;23;19996;-83
2022/11/25 09:27:55;;;;;;;7.60;4.82;;;;;;;;;;6094310;23;20065;-84
2022/11/25 09:30:29;;;;;;;8.68;5.43;;;;;;;;;;6070634;23;20665;-83
2022/11/25 09:32:56;;;;;;;9.98;5.80;;;;;;;;;;6093064;23;20023;-83
2022/11/25 09:35:30;;;;;;;7.88;4.82;;;;;;;;;;6093331;23;20058;-83
2022/11/25 09:37:57;;;;;;;8.32;5.53;;;;;;;;;;6093249;23;20431;-84
2022/11/25 09:40:44;;;;;;;10.38;5.97;;;;;;;;;;6093090;23;20023;-84
2022/11/25 09:49:04;;;;;;;8.77;5.32;;;;;;;;;;6093015;23;20056;-84
2022/11/25 09:51:44;;;;;;;10.25;5.85;;;;;;;;;;6092878;23;20027;-84
2022/11/25 09:54:25;;;;;;;8.63;5.30;;;;;;;;;;6094667;23;20089;-84
2022/11/25 09:56:54;;;;;;;8.18;5.40;;;;;;;;;;6093971;23;20027;-84
2022/11/25 09:59:34;;;;;;;9.20;5.53;;;;;;;;;;6092612;23;20359;-84
2022/11/25 10:02:10;;;;;;;10.18;6.30;;;;;;;;;;6093067;23;20086;-84
2022/11/25 10:04:46;;;;;;;8.93;5.70;;;;;;;;;;6093910;23;20057;-84
2022/11/25 10:07:37;;;;;;;9.95;6.03;;;;;;;;;;6092808;23;20105;-84
2022/11/25 10:10:18;;;;;;;8.48;5.63;;;;;;;;;;6083051;23;20098;-84
2022/11/25 10:12:46;;;;;;;9.05;6.22;;;;;;;;;;6093078;23;20074;-83
2022/11/25 10:15:36;;;;;;;10.05;5.63;;;;;;;;;;6092324;23;20360;-84
2022/11/25 10:18:06;;;;;;;8.50;5.60;;;;;;;;;;6092411;23;20022;-84
2022/11/25 10:20:40;;;;;;;9.68;6.30;;;;;;;;;;6092471;23;20507;-84
2022/11/25 10:23:15;;;;;;;8.65;5.80;;;;;;;;;;6091787;23;20053;-84
2022/11/25 10:26:00;;;;;;;8.82;5.57;;;;;;;;;;6092016;23;20054;-84
2022/11/25 10:28:31;;;;;;;9.98;6.55;;;;;;;;;;6092996;23;20122;-84
2022/11/25 10:31:16;;;;;;;11.00;6.50;;;;;;;;;;6091866;23;20045;-84
2022/11/25 10:33:43;;;;;;;11.18;6.85;;;;;;;;;;6092887;23;20022;-84
2022/11/25 10:36:23;;;;;;;13.20;6.90;;;;;;;;;;6092120;23;20700;-84
2022/11/25 10:39:01;;;;;;;10.10;6.72;;;;;;;;;;6093119;23;20026;-84
2022/11/25 10:41:37;;;;;;;10.23;6.63;;;;;;;;;;6092579;23;20125;-84
2022/11/25 10:44:11;;;;;;;12.15;7.65;;;;;;;;;;6092156;23;20037;-83
2022/11/25 10:46:50;;;;;;;11.98;7.53;;;;;;;;;;6091699;23;20101;-83
2022/11/25 10:49:56;;;;;;;11.05;6.93;;;;;;;;;;6091973;23;20364;-84
2022/11/25 10:52:34;;;;;;;11.40;6.78;;;;;;;;;;6092441;23;20032;-83
2022/11/25 10:55:10;;;;;;;10.60;7.07;;;;;;;;;;6091982;23;20026;-84
2022/11/25 10:57:43;;;;;;;9.70;6.63;;;;;;;;;;6091517;23;20022;-84
2022/11/25 11:00:28;;;;;;;11.20;6.93;;;;;;;;;;6092666;23;20113;-84
2022/11/25 11:03:15;;;;;;;10.20;6.78;;;;;;;;;;6091702;23;20101;-84
2022/11/25 11:05:47;;;;;;;10.15;6.57;;;;;;;;;;6091922;23;20022;-84
2022/11/25 11:08:26;;;;;;;11.07;6.30;;;;;;;;;;6092619;23;20022;-83
2022/11/25 11:11:10;;;;;;;9.55;5.53;;;;;;;;;;6092759;23;20441;-83
2022/11/25 11:14:04;;;;;;;10.95;6.22;;;;;;;;;;6091769;23;20101;-83
2022/11/25 11:16:40;;;;;;;14.57;6.05;;;;;;;;;;6062785;23;20125;-83
2022/11/25 11:19:40;;;;;;;10.70;6.40;;;;;;;;;;6064351;23;20046;-84
2022/11/25 11:22:16;;;;;;;10.35;5.78;;;;;;;;;;6058830;23;20427;-82
2022/11/25 11:25:04;;;;;;;9.65;6.20;;;;;;;;;;6064063;23;20133;-83
2022/11/25 11:27:35;;;;;;;11.38;6.45;;;;;;;;;;6063893;23;20018;-83
2022/11/25 11:30:15;;;;;;;8.70;5.33;;;;;;;;;;6063577;23;20033;-83
2022/11/25 11:32:46;;;;;;;11.48;6.63;;;;;;;;;;6063303;23;20508;-82
2022/11/25 11:35:20;;;;;;;;;;;;;;;;;;6063665;23;20546;-83
2022/11/25 11:37:52;;;;;;;9.13;6.05;;;;;;;;;;6062871;23;19945;-83
2022/11/25 11:40:38;;;;;;;10.02;6.07;;;;;;;;;;6063553;23;20118;-83
2022/11/25 11:43:05;;;;;;;9.55;6.00;;;;;;;;;;6062541;23;20100;-82
2022/11/25 11:45:39;;;;;;;10.23;6.18;;;;;;;;;;6063621;23;20048;-83
2022/11/25 11:48:28;;;;;;;9.63;5.75;;;;;;;;;;6063263;23;20106;-82
2022/11/25 11:51:09;;;;;;;9.85;5.88;;;;;;;;;;6062716;23;20050;-82
2022/11/25 11:53:42;;;;;;;11.40;6.20;;;;;;;;;;6063357;23;20114;-83
2022/11/25 11:56:34;;;;;;;8.35;5.43;;;;;;;;;;6062713;23;20094;-83
2022/11/25 11:59:11;;;;;;;9.52;6.05;;;;;;;;;;6062576;23;20026;-83
2022/11/25 12:02:04;;;;;;;9.45;6.07;;;;;;;;;;6063211;23;20134;-84
2022/11/25 12:04:46;;;;;;;8.38;5.28;;;;;;;;;;6062640;23;20054;-83
2022/11/25 12:07:25;;;;;;;9.18;5.88;;;;;;;;;;6061679;23;20058;-83
2022/11/25 12:09:53;;;;;;;10.25;5.72;;;;;;;;;;6062718;23;20092;-83
2022/11/25 12:12:22;;;;;;;9.38;5.93;;;;;;;;;;6062152;23;20411;-82
2022/11/25 12:15:23;;;;;;;10.15;6.35;;;;;;;;;;6075490;23;20106;-82
2022/11/25 12:17:59;;;;;;;8.95;5.65;;;;;;;;;;6091779;23;20101;-83
2022/11/25 12:20:27;;;;;;;9.80;5.75;;;;;;;;;;6091388;23;20559;-84
2022/11/25 12:23:15;;;;;;;9.13;5.50;;;;;;;;;;6065675;23;20113;-82
2022/11/25 12:26:01;;;;;;;10.35;5.88;;;;;;;;;;6092030;23;20026;-83
2022/11/25 12:28:41;;;;;;;9.13;5.85;;;;;;;;;;6092045;23;20022;-82
2022/11/25 12:31:24;;;;;;;8.55;5.45;;;;;;;;;;6092649;23;20419;-83
2022/11/25 12:34:16;;;;;;;11.73;6.10;;;;;;;;;;6091820;23;20022;-82
2022/11/25 12:36:46;;;;;;;10.60;6.60;;;;;;;;;;6091478;23;20058;-83
2022/11/25 12:39:22;;;;;;;11.27;5.75;;;;;;;;;;6091847;23;20141;-82
2022/11/25 12:41:55;;;;;;;9.75;5.85;;;;;;;;;;6090565;23;20048;-82
2022/11/25 12:44:48;;;;;;;11.43;5.75;;;;;;;;;;6092342;23;20026;-82
2022/11/25 12:47:15;;;;;;;10.50;5.97;;;;;;;;;;6091219;23;20525;-83
2022/11/25 12:49:50;;;;;;;9.50;5.95;;;;;;;;;;6091288;23;20089;-82
2022/11/25 12:52:36;;;;;;;10.10;6.18;;;;;;;;;;6091830;23;20026;-83
2022/11/25 12:55:10;;;;;;;10.68;6.47;;;;;;;;;;6091831;23;20103;-83
2022/11/25 12:57:56;;;;;;;11.50;6.60;;;;;;;;;;6091781;23;20025;-83
2022/11/25 13:00:40;;;;;;;11.15;6.30;;;;;;;;;;6092450;23;20031;-83
2022/11/25 13:03:09;;;;;;;13.00;7.32;;;;;;;;;;6091658;23;20058;-83
2022/11/25 13:06:12;;;;;;;11.63;6.88;;;;;;;;;;6090410;23;20105;-82
2022/11/25 13:08:54;;;;;;;11.98;7.22;;;;;;;;;;6091128;23;20503;-83
2022/11/25 13:11:28;;;;;;;;;;;;;;;;;;6091640;23;20060;-83
2022/11/25 13:13:59;;;;;;;8.85;5.93;;;;;;;;;;6091649;23;19921;-82
2022/11/25 13:16:33;;;;;;;11.15;6.65;;;;;;;;;;6091999;23;20077;-83
2022/11/25 13:19:10;;;;;;;9.80;6.47;;;;;;;;;;6091467;23;20356;-83
2022/11/25 13:21:55;;;;;;;11.48;6.80;;;;;;;;;;6090578;23;20536;-83
2022/11/25 13:24:39;;;;;;;12.23;7.07;;;;;;;;;;6091832;23;20519;-83
2022/11/25 13:27:26;;;;;;;8.88;6.13;;;;;;;;;;6090569;23;20019;-82
2022/11/25 13:30:00;;;;;;;12.07;6.85;;;;;;;;;;6093007;23;20101;-82
2022/11/25 13:32:32;;;;;;;9.80;6.05;;;;;;;;;;6091642;23;20027;-83
2022/11/25 13:35:20;;;;;;;10.77;6.63;;;;;;;;;;6093391;23;20094;-83
2022/11/25 13:37:48;;;;;;;11.23;6.45;;;;;;;;;;6092760;23;20105;-83
2022/11/25 13:40:22;;;;;;;13.07;7.18;;;;;;;;;;6091279;23;20022;-82
2022/11/25 13:42:50;;;;;;;10.15;6.22;;;;;;;;;;6091911;23;20105;-82
2022/11/25 13:45:24;;;;;;;9.50;5.65;;;;;;;;;;6092337;23;20072;-82
2022/11/25 13:47:52;;;;;;;11.90;6.93;;;;;;;;;;6091592;23;20029;-82
2022/11/25 13:50:24;;;;;;;42.30;16.25;;;;;;;;;;6091609;23;20413;-82
2022/11/25 13:53:19;;;;;;;24.55;11.07;;;;;;;;;;6090592;23;20026;-82
2022/11/25 13:55:49;;;;;;;12.30;6.72;;;;;;;;;;6091056;23;20099;-82
2022/11/25 13:58:24;;;;;;;13.98;7.00;;;;;;;;;;6091579;23;20089;-81
2022/11/25 14:00:57;;;;;;;10.90;7.38;;;;;;;;;;6090968;23;20034;-83
2022/11/25 14:03:30;;;;;;;10.25;6.15;;;;;;;;;;6090783;23;20126;-82
2022/11/25 14:06:01;;;;;;;11.32;6.32;;;;;;;;;;6091640;23;20030;-82
2022/11/25 14:08:51;;;;;;;12.13;7.50;;;;;;;;;;6091900;23;20351;-82
2022/11/25 14:11:39;;;;;;;12.02;7.55;;;;;;;;;;6092307;23;20298;-83
2022/11/25 14:14:23;;;;;;;9.63;6.07;;;;;;;;;;6093423;23;20110;-83
2022/11/25 14:17:25;;;;;;;9.18;6.05;;;;;;;;;;6064496;23;20019;-82
2022/11/25 14:20:11;;;;;;;9.95;5.18;;;;;;;;;;6065189;23;20097;-82
2022/11/25 14:23:00;;;;;;;13.77;5.95;;;;;;;;;;6064277;23;20543;-82
2022/11/25 14:25:31;;;;;;;11.45;5.85;;;;;;;;;;6062950;23;20023;-83
2022/11/25 14:28:16;;;;;;;10.77;7.10;;;;;;;;;;6062559;23;20029;-82
2022/11/25 14:30:46;;;;;;;10.65;6.80;;;;;;;;;;6064348;23;20094;-83
2022/11/25 14:33:23;;;;;;;10.48;6.38;;;;;;;;;;6063585;23;20029;-82
2022/11/25 14:35:53;;;;;;;12.55;6.72;;;;;;;;;;6064188;23;20030;-82
2022/11/25 14:38:31;;;;;;;9.32;6.10;;;;;;;;;;6064332;23;20062;-82
2022/11/25 14:41:03;;;;;;;11.50;7.32;;;;;;;;;;6063479;23;20037;-83
2022/11/25 14:43:41;;;;;;;14.10;6.97;;;;;;;;;;6064721;23;20472;-83
2022/11/25 14:46:19;;;;;;;12.02;6.70;;;;;;;;;;6063209;23;20101;-82
2022/11/25 14:48:57;;;;;;;10.85;6.32;;;;;;;;;;6063982;23;20749;-82
2022/11/25 14:51:25;;;;;;;11.02;7.00;;;;;;;;;;6064500;23;20029;-83
2022/11/25 14:53:59;;;;;;;9.20;5.70;;;;;;;;;;6064494;23;20023;-81
2022/11/25 14:56:28;;;;;;;11.18;6.43;;;;;;;;;;6063719;23;20023;-81
2022/11/25 14:59:03;;;;;;;7.40;4.05;;;;;;;;;;6062720;23;20098;-82
2022/11/25 15:01:30;;;;;;;;;;;;;;;;;;6062341;23;20023;-82
2022/11/25 15:04:04;;;;;;;10.25;5.18;;;;;;;;;;6062215;23;20002;-83
2022/11/25 15:06:36;;;;;;;12.98;7.15;;;;;;;;;;6060117;23;20069;-82
2022/11/25 15:09:19;;;;;;;12.05;6.80;;;;;;;;;;6063587;23;20477;-82
2022/11/25 15:11:47;;;;;;;12.07;6.88;;;;;;;;;;6063754;23;20054;-82
2022/11/25 15:14:25;;;;;;;12.57;7.47;;;;;;;;;;6061347;23;20023;-83
2022/11/25 15:17:24;;;;;;;11.85;6.93;;;;;;;;;;6063097;23;20103;-82
2022/11/25 15:20:03;;;;;;;11.23;7.20;;;;;;;;;;6066886;23;20488;-82
2022/11/25 15:22:31;;;;;;;12.73;8.07;;;;;;;;;;6089694;23;20247;-83
2022/11/25 15:25:09;;;;;;;11.18;6.50;;;;;;;;;;6090937;23;20022;-82
2022/11/25 15:27:43;;;;;;;13.80;7.35;;;;;;;;;;6090375;23;20105;-82
2022/11/25 15:30:17;;;;;;;15.10;5.82;;;;;;;;;;6066420;23;20022;-82
2022/11/25 15:32:45;;;;;;;10.80;6.65;;;;;;;;;;6090262;23;20105;-83